sensor_id;sensor_type;location;lat;lon;timestamp;pressure;altitude;pressure_sealevel;temperature;humidity
21359;BME280;13506;50.852;20.632;2023-01-28T00:01:49;98737.00;;;-2.05;76.34
21359;BME280;13506;50.852;20.632;2023-01-28T00:04:17;98735.16;;;-1.95;76.17
21359;BME280;13506;50.852;20.632;2023-01-28T00:06:46;98735.19;;;-1.98;76.46
21359;BME280;13506;50.852;20.632;2023-01-28T00:09:15;98730.84;;;-1.93;76.13
21359;BME280;13506;50.852;20.632;2023-01-28T00:11:44;98735.81;;;-1.84;76.58
21359;BME280;13506;50.852;20.632;2023-01-28T00:14:12;98737.47;;;-1.81;76.10
21359;BME280;13506;50.852;20.632;2023-01-28T00:16:40;98738.31;;;-1.79;76.08
21359;BME280;13506;50.852;20.632;2023-01-28T00:19:08;98740.84;;;-1.76;76.28
21359;BME280;13506;50.852;20.632;2023-01-28T00:21:36;98744.97;;;-1.69;75.63
21359;BME280;13506;50.852;20.632;2023-01-28T00:24:05;98740.66;;;-1.65;74.45
21359;BME280;13506;50.852;20.632;2023-01-28T00:26:36;98746.53;;;-1.60;74.43
21359;BME280;13506;50.852;20.632;2023-01-28T00:29:04;98735.38;;;-1.56;75.07
21359;BME280;13506;50.852;20.632;2023-01-28T00:31:33;98734.38;;;-1.49;74.61
21359;BME280;13506;50.852;20.632;2023-01-28T00:34:03;98728.41;;;-1.50;73.95
21359;BME280;13506;50.852;20.632;2023-01-28T00:36:32;98720.72;;;-1.50;74.13
21359;BME280;13506;50.852;20.632;2023-01-28T00:39:05;98731.16;;;-1.62;73.45
21359;BME280;13506;50.852;20.632;2023-01-28T00:41:36;98732.97;;;-1.65;73.49
21359;BME280;13506;50.852;20.632;2023-01-28T00:44:04;98728.78;;;-1.73;74.04
21359;BME280;13506;50.852;20.632;2023-01-28T00:46:32;98738.97;;;-1.68;74.13
21359;BME280;13506;50.852;20.632;2023-01-28T00:49:00;98723.53;;;-1.65;74.21
21359;BME280;13506;50.852;20.632;2023-01-28T00:51:28;98724.41;;;-1.66;74.37
21359;BME280;13506;50.852;20.632;2023-01-28T00:53:56;98726.94;;;-1.63;74.29
21359;BME280;13506;50.852;20.632;2023-01-28T00:56:24;98737.28;;;-1.69;75.14
21359;BME280;13506;50.852;20.632;2023-01-28T00:58:54;98727.78;;;-1.64;75.03
21359;BME280;13506;50.852;20.632;2023-01-28T01:01:24;98735.53;;;-1.65;75.08
21359;BME280;13506;50.852;20.632;2023-01-28T01:03:53;98732.00;;;-1.60;73.92
21359;BME280;13506;50.852;20.632;2023-01-28T01:06:31;98733.84;;;-1.68;74.28
21359;BME280;13506;50.852;20.632;2023-01-28T01:09:01;98734.72;;;-1.69;75.20
21359;BME280;13506;50.852;20.632;2023-01-28T01:11:29;98738.91;;;-1.63;74.59
21359;BME280;13506;50.852;20.632;2023-01-28T01:13:59;98739.09;;;-1.74;74.36
21359;BME280;13506;50.852;20.632;2023-01-28T01:16:31;98741.78;;;-1.82;75.73
21359;BME280;13506;50.852;20.632;2023-01-28T01:19:03;98739.22;;;-1.83;75.56
21359;BME280;13506;50.852;20.632;2023-01-28T01:21:31;98741.78;;;-1.83;75.45
21359;BME280;13506;50.852;20.632;2023-01-28T01:23:59;98744.41;;;-1.87;75.84
21359;BME280;13506;50.852;20.632;2023-01-28T01:26:28;98735.91;;;-1.90;75.48
21359;BME280;13506;50.852;20.632;2023-01-28T01:28:58;98741.84;;;-1.87;76.33
21359;BME280;13506;50.852;20.632;2023-01-28T01:31:26;98740.28;;;-1.97;77.18
21359;BME280;13506;50.852;20.632;2023-01-28T01:33:54;98746.97;;;-1.87;76.55
21359;BME280;13506;50.852;20.632;2023-01-28T01:36:22;98746.00;;;-1.79;75.78
21359;BME280;13506;50.852;20.632;2023-01-28T01:38:53;98747.75;;;-1.81;75.58
21359;BME280;13506;50.852;20.632;2023-01-28T01:41:27;98741.78;;;-1.83;75.52
21359;BME280;13506;50.852;20.632;2023-01-28T01:43:59;98736.75;;;-1.90;75.82
21359;BME280;13506;50.852;20.632;2023-01-28T01:46:35;98755.69;;;-2.00;77.11
21359;BME280;13506;50.852;20.632;2023-01-28T01:49:14;98742.13;;;-2.05;77.49
21359;BME280;13506;50.852;20.632;2023-01-28T01:51:48;98751.47;;;-2.02;76.54
21359;BME280;13506;50.852;20.632;2023-01-28T01:54:18;98742.13;;;-2.05;77.31
21359;BME280;13506;50.852;20.632;2023-01-28T01:56:50;98748.09;;;-2.04;77.12
21359;BME280;13506;50.852;20.632;2023-01-28T01:59:23;98753.88;;;-1.92;76.88
21359;BME280;13506;50.852;20.632;2023-01-28T02:01:53;98751.28;;;-1.89;76.67
21359;BME280;13506;50.852;20.632;2023-01-28T02:04:25;98741.03;;;-1.90;76.48
21359;BME280;13506;50.852;20.632;2023-01-28T02:06:56;98737.72;;;-1.95;76.59
21359;BME280;13506;50.852;20.632;2023-01-28T02:09:28;98730.13;;;-2.03;77.37
21359;BME280;13506;50.852;20.632;2023-01-28T02:12:02;98741.13;;;-1.95;76.51
21359;BME280;13506;50.852;20.632;2023-01-28T02:14:35;98740.47;;;-2.09;77.21
21359;BME280;13506;50.852;20.632;2023-01-28T02:17:06;98731.88;;;-2.05;77.00
21359;BME280;13506;50.852;20.632;2023-01-28T02:19:38;98748.97;;;-2.07;77.77
21359;BME280;13506;50.852;20.632;2023-01-28T02:28:42;98744.69;;;-2.07;77.14
21359;BME280;13506;50.852;20.632;2023-01-28T02:31:18;98740.44;;;-2.06;76.76
21359;BME280;13506;50.852;20.632;2023-01-28T02:33:55;98748.16;;;-2.08;76.73
21359;BME280;13506;50.852;20.632;2023-01-28T02:36:35;98747.19;;;-2.02;76.75
21359;BME280;13506;50.852;20.632;2023-01-28T02:39:14;98744.56;;;-1.97;76.60
21359;BME280;13506;50.852;20.632;2023-01-28T02:41:51;98756.56;;;-1.99;76.29
21359;BME280;13506;50.852;20.632;2023-01-28T02:44:23;98750.69;;;-2.06;76.19
21359;BME280;13506;50.852;20.632;2023-01-28T02:46:53;98747.41;;;-2.16;76.16
21359;BME280;13506;50.852;20.632;2023-01-28T02:49:42;98745.75;;;-2.18;76.16
21359;BME280;13506;50.852;20.632;2023-01-28T02:52:24;98752.69;;;-2.26;77.37
21359;BME280;13506;50.852;20.632;2023-01-28T02:55:19;98753.44;;;-2.20;77.07
21359;BME280;13506;50.852;20.632;2023-01-28T02:57:57;98756.09;;;-2.28;76.62
21359;BME280;13506;50.852;20.632;2023-01-28T03:00:43;98757.84;;;-2.30;76.83
21359;BME280;13506;50.852;20.632;2023-01-28T03:03:19;98747.59;;;-2.30;76.60
21359;BME280;13506;50.852;20.632;2023-01-28T03:05:54;98751.84;;;-2.29;76.23
21359;BME280;13506;50.852;20.632;2023-01-28T03:08:36;98758.66;;;-2.28;76.30
21359;BME280;13506;50.852;20.632;2023-01-28T03:11:24;98770.56;;;-2.23;76.50
21359;BME280;13506;50.852;20.632;2023-01-28T03:14:18;98763.75;;;-2.24;76.28
21359;BME280;13506;50.852;20.632;2023-01-28T03:17:32;98771.50;;;-2.29;76.51
21359;BME280;13506;50.852;20.632;2023-01-28T03:20:28;98765.44;;;-2.23;76.41
21359;BME280;13506;50.852;20.632;2023-01-28T03:23:21;98769.63;;;-2.16;76.35
21359;BME280;13506;50.852;20.632;2023-01-28T03:26:11;98771.38;;;-2.18;76.19
21359;BME280;13506;50.852;20.632;2023-01-28T03:29:07;98771.38;;;-2.18;76.54
21359;BME280;13506;50.852;20.632;2023-01-28T03:31:55;98774.66;;;-2.10;75.80
21359;BME280;13506;50.852;20.632;2023-01-28T03:34:44;98765.94;;;-2.00;75.69
21359;BME280;13506;50.852;20.632;2023-01-28T03:37:32;98771.06;;;-2.00;74.82
21359;BME280;13506;50.852;20.632;2023-01-28T03:40:17;98766.75;;;-1.93;75.16
21359;BME280;13506;50.852;20.632;2023-01-28T03:42:47;98767.75;;;-2.05;74.51
21359;BME280;13506;50.852;20.632;2023-01-28T03:45:37;98764.59;;;-2.22;75.52
21359;BME280;13506;50.852;20.632;2023-01-28T03:58:04;98768.13;;;-2.33;76.56
21359;BME280;13506;50.852;20.632;2023-01-28T04:00:36;98767.31;;;-2.36;75.41
21359;BME280;13506;50.852;20.632;2023-01-28T04:03:08;98773.19;;;-2.30;75.82
21359;BME280;13506;50.852;20.632;2023-01-28T04:05:42;98773.31;;;-2.36;76.70
21359;BME280;13506;50.852;20.632;2023-01-28T04:08:11;98769.09;;;-2.40;76.62
21359;BME280;13506;50.852;20.632;2023-01-28T04:10:58;98782.75;;;-2.42;76.84
21359;BME280;13506;50.852;20.632;2023-01-28T04:13:43;98772.44;;;-2.36;76.66
21359;BME280;13506;50.852;20.632;2023-01-28T04:16:16;98765.75;;;-2.46;77.46
21359;BME280;13506;50.852;20.632;2023-01-28T04:18:45;98781.78;;;-2.31;77.51
21359;BME280;13506;50.852;20.632;2023-01-28T04:21:14;98772.44;;;-2.36;77.70
21359;BME280;13506;50.852;20.632;2023-01-28T04:23:42;98771.88;;;-2.58;79.40
21359;BME280;13506;50.852;20.632;2023-01-28T04:26:13;98771.78;;;-2.51;78.38
21359;BME280;13506;50.852;20.632;2023-01-28T04:28:42;98776.16;;;-2.59;79.11
21359;BME280;13506;50.852;20.632;2023-01-28T04:31:11;98776.94;;;-2.52;78.78
21359;BME280;13506;50.852;20.632;2023-01-28T04:33:57;98766.63;;;-2.47;77.97
21359;BME280;13506;50.852;20.632;2023-01-28T04:36:45;98768.03;;;-2.95;80.06
21359;BME280;13506;50.852;20.632;2023-01-28T04:39:46;98766.91;;;-2.69;80.61
21359;BME280;13506;50.852;20.632;2023-01-28T04:42:17;98765.63;;;-3.08;81.71
21359;BME280;13506;50.852;20.632;2023-01-28T04:45:07;98774.19;;;-3.14;83.89
21359;BME280;13506;50.852;20.632;2023-01-28T04:48:08;98776.63;;;-2.99;83.45
21359;BME280;13506;50.852;20.632;2023-01-28T04:50:46;98783.28;;;-2.84;82.36
21359;BME280;13506;50.852;20.632;2023-01-28T04:53:21;98780.66;;;-2.78;81.88
21359;BME280;13506;50.852;20.632;2023-01-28T04:55:57;98772.88;;;-2.70;81.37
21359;BME280;13506;50.852;20.632;2023-01-28T04:58:26;98762.59;;;-2.67;80.80
21359;BME280;13506;50.852;20.632;2023-01-28T05:01:01;98774.75;;;-2.84;80.88
21359;BME280;13506;50.852;20.632;2023-01-28T05:03:30;98777.91;;;-2.64;80.45
21359;BME280;13506;50.852;20.632;2023-01-28T05:05:59;98768.44;;;-2.57;80.51
21359;BME280;13506;50.852;20.632;2023-01-28T05:08:37;98784.63;;;-2.52;80.76
21359;BME280;13506;50.852;20.632;2023-01-28T05:11:04;98775.41;;;-2.69;79.59
21359;BME280;13506;50.852;20.632;2023-01-28T05:13:33;98783.81;;;-2.57;80.66
21359;BME280;13506;50.852;20.632;2023-01-28T05:16:02;98768.56;;;-2.66;79.99
21359;BME280;13506;50.852;20.632;2023-01-28T05:18:31;98773.88;;;-2.85;81.32
21359;BME280;13506;50.852;20.632;2023-01-28T05:21:09;98770.41;;;-2.78;82.38
21359;BME280;13506;50.852;20.632;2023-01-28T05:23:39;98777.97;;;-2.69;81.23
21359;BME280;13506;50.852;20.632;2023-01-28T05:26:07;98784.69;;;-2.58;81.20
21359;BME280;13506;50.852;20.632;2023-01-28T05:28:36;98793.13;;;-2.50;81.20
21359;BME280;13506;50.852;20.632;2023-01-28T05:31:06;98788.09;;;-2.56;81.01
21359;BME280;13506;50.852;20.632;2023-01-28T05:33:34;98799.34;;;-2.73;82.22
21359;BME280;13506;50.852;20.632;2023-01-28T05:36:04;98795.03;;;-2.67;82.24
21359;BME280;13506;50.852;20.632;2023-01-28T05:38:33;98792.47;;;-2.67;81.87
21359;BME280;13506;50.852;20.632;2023-01-28T05:41:01;98800.97;;;-2.65;82.55
21359;BME280;13506;50.852;20.632;2023-01-28T05:43:29;98804.59;;;-2.82;81.35
21359;BME280;13506;50.852;20.632;2023-01-28T05:46:14;98813.59;;;-3.32;85.25
21359;BME280;13506;50.852;20.632;2023-01-28T05:49:14;98820.19;;;-3.03;84.40
21359;BME280;13506;50.852;20.632;2023-01-28T05:52:00;98819.13;;;-2.87;84.32
21359;BME280;13506;50.852;20.632;2023-01-28T05:54:31;98819.81;;;-2.70;83.61
21359;BME280;13506;50.852;20.632;2023-01-28T05:56:59;98820.56;;;-2.60;82.42
21359;BME280;13506;50.852;20.632;2023-01-28T05:59:29;98823.09;;;-2.57;82.83
21359;BME280;13506;50.852;20.632;2023-01-28T06:01:59;98828.94;;;-2.45;81.68
21359;BME280;13506;50.852;20.632;2023-01-28T06:04:27;98826.34;;;-2.44;81.85
21359;BME280;13506;50.852;20.632;2023-01-28T06:06:55;98833.13;;;-2.40;81.93
21359;BME280;13506;50.852;20.632;2023-01-28T06:09:24;98844.94;;;-2.30;81.09
21359;BME280;13506;50.852;20.632;2023-01-28T06:11:52;98836.34;;;-2.24;80.50
21359;BME280;13506;50.852;20.632;2023-01-28T06:14:20;98847.44;;;-2.23;80.76
21359;BME280;13506;50.852;20.632;2023-01-28T06:17:07;98842.59;;;-2.46;82.04
21359;BME280;13506;50.852;20.632;2023-01-28T06:19:47;98841.13;;;-2.67;81.59
21359;BME280;13506;50.852;20.632;2023-01-28T06:22:16;98835.44;;;-2.94;83.29
21359;BME280;13506;50.852;20.632;2023-01-28T06:24:44;98842.13;;;-2.81;83.38
21359;BME280;13506;50.852;20.632;2023-01-28T06:27:12;98855.00;;;-2.88;83.69
21359;BME280;13506;50.852;20.632;2023-01-28T06:29:40;98849.16;;;-3.03;84.83
21359;BME280;13506;50.852;20.632;2023-01-28T06:32:09;98849.03;;;-2.89;84.30
21359;BME280;13506;50.852;20.632;2023-01-28T06:34:38;98859.97;;;-2.76;82.84
21359;BME280;13506;50.852;20.632;2023-01-28T06:37:06;98847.44;;;-3.02;82.66
21359;BME280;13506;50.852;20.632;2023-01-28T06:39:34;98853.41;;;-3.02;81.53
21359;BME280;13506;50.852;20.632;2023-01-28T06:42:02;98862.09;;;-3.18;82.57
21359;BME280;13506;50.852;20.632;2023-01-28T06:44:30;98854.34;;;-3.07;81.57
21359;BME280;13506;50.852;20.632;2023-01-28T06:46:58;98852.75;;;-3.24;82.16
21359;BME280;13506;50.852;20.632;2023-01-28T06:49:28;98858.00;;;-3.41;82.37
21359;BME280;13506;50.852;20.632;2023-01-28T06:51:55;98863.78;;;-3.19;82.84
21359;BME280;13506;50.852;20.632;2023-01-28T06:54:23;98861.28;;;-3.25;82.13
21359;BME280;13506;50.852;20.632;2023-01-28T06:56:51;98870.72;;;-3.32;82.30
21359;BME280;13506;50.852;20.632;2023-01-28T06:59:20;98863.84;;;-3.23;82.48
21359;BME280;13506;50.852;20.632;2023-01-28T07:01:48;98856.22;;;-3.30;82.96
21359;BME280;13506;50.852;20.632;2023-01-28T07:04:16;98857.19;;;-3.46;83.19
21359;BME280;13506;50.852;20.632;2023-01-28T07:06:45;98856.28;;;-3.37;83.74
21359;BME280;13506;50.852;20.632;2023-01-28T07:09:13;98852.91;;;-3.42;84.44
21359;BME280;13506;50.852;20.632;2023-01-28T07:11:41;98852.81;;;-3.33;83.87
21359;BME280;13506;50.852;20.632;2023-01-28T07:14:10;98854.44;;;-3.18;83.21
21359;BME280;13506;50.852;20.632;2023-01-28T07:16:38;98863.88;;;-3.28;82.79
21359;BME280;13506;50.852;20.632;2023-01-28T07:19:06;98854.47;;;-3.27;83.07
21359;BME280;13506;50.852;20.632;2023-01-28T07:21:34;98866.44;;;-3.31;83.77
21359;BME280;13506;50.852;20.632;2023-01-28T07:24:04;98872.31;;;-3.17;83.08
21359;BME280;13506;50.852;20.632;2023-01-28T07:26:32;98874.03;;;-3.16;82.77
21359;BME280;13506;50.852;20.632;2023-01-28T07:29:00;98874.75;;;-3.04;82.53
21359;BME280;13506;50.852;20.632;2023-01-28T07:31:28;98876.44;;;-3.00;81.50
21359;BME280;13506;50.852;20.632;2023-01-28T07:33:56;98878.13;;;-2.99;81.45
21359;BME280;13506;50.852;20.632;2023-01-28T07:36:24;98885.56;;;-2.75;80.62
21359;BME280;13506;50.852;20.632;2023-01-28T07:38:52;98886.53;;;-2.83;80.02
21359;BME280;13506;50.852;20.632;2023-01-28T07:41:21;98889.66;;;-2.55;79.18
21359;BME280;13506;50.852;20.632;2023-01-28T07:43:50;98889.06;;;-2.82;79.29
21359;BME280;13506;50.852;20.632;2023-01-28T07:46:18;98897.28;;;-2.51;79.29
21359;BME280;13506;50.852;20.632;2023-01-28T07:48:47;98891.19;;;-2.39;80.11
21359;BME280;13506;50.852;20.632;2023-01-28T07:51:15;98896.19;;;-2.30;78.77
21359;BME280;13506;50.852;20.632;2023-01-28T07:53:43;98897.78;;;-2.16;77.91
21359;BME280;13506;50.852;20.632;2023-01-28T07:56:11;98905.34;;;-2.07;78.18
21359;BME280;13506;50.852;20.632;2023-01-28T07:58:40;98902.31;;;-2.40;78.20
21359;BME280;13506;50.852;20.632;2023-01-28T08:01:08;98910.59;;;-2.18;77.86
21359;BME280;13506;50.852;20.632;2023-01-28T08:03:36;98900.59;;;-2.39;78.31
21359;BME280;13506;50.852;20.632;2023-01-28T08:06:05;98908.22;;;-2.35;78.76
21359;BME280;13506;50.852;20.632;2023-01-28T08:08:33;98910.66;;;-2.25;78.79
21359;BME280;13506;50.852;20.632;2023-01-28T08:11:07;98906.44;;;-2.28;78.92
21359;BME280;13506;50.852;20.632;2023-01-28T08:13:37;98897.78;;;-2.19;77.40
21359;BME280;13506;50.852;20.632;2023-01-28T08:16:06;98902.88;;;-2.16;77.61
21359;BME280;13506;50.852;20.632;2023-01-28T08:18:35;98903.78;;;-2.19;77.61
21359;BME280;13506;50.852;20.632;2023-01-28T08:21:03;98899.22;;;-1.97;77.42
21359;BME280;13506;50.852;20.632;2023-01-28T08:23:32;98908.53;;;-1.90;77.25
21359;BME280;13506;50.852;20.632;2023-01-28T08:26:01;98908.38;;;-1.79;77.45
21359;BME280;13506;50.852;20.632;2023-01-28T08:28:29;98904.97;;;-1.78;76.42
21359;BME280;13506;50.852;20.632;2023-01-28T08:30:59;98909.19;;;-1.72;77.16
21359;BME280;13506;50.852;20.632;2023-01-28T08:33:29;98898.72;;;-1.60;76.38
21359;BME280;13506;50.852;20.632;2023-01-28T08:35:57;98906.47;;;-1.61;75.86
21359;BME280;13506;50.852;20.632;2023-01-28T08:38:25;98905.50;;;-1.54;76.08
21359;BME280;13506;50.852;20.632;2023-01-28T08:40:55;98893.50;;;-1.52;76.17
21359;BME280;13506;50.852;20.632;2023-01-28T08:43:24;98900.19;;;-1.40;75.91
21359;BME280;13506;50.852;20.632;2023-01-28T08:45:53;98889.25;;;-1.55;76.00
21359;BME280;13506;50.852;20.632;2023-01-28T08:48:21;98898.69;;;-1.55;75.53
21359;BME280;13506;50.852;20.632;2023-01-28T08:50:50;98895.06;;;-1.42;75.69
21359;BME280;13506;50.852;20.632;2023-01-28T08:53:19;98895.81;;;-1.35;76.58
21359;BME280;13506;50.852;20.632;2023-01-28T08:55:47;98895.72;;;-1.31;74.80
21359;BME280;13506;50.852;20.632;2023-01-28T08:58:17;98898.22;;;-1.26;75.97
21359;BME280;13506;50.852;20.632;2023-01-28T09:00:45;98897.22;;;-1.17;76.34
21359;BME280;13506;50.852;20.632;2023-01-28T09:03:14;98898.94;;;-1.16;75.64
21359;BME280;13506;50.852;20.632;2023-01-28T09:05:42;98912.53;;;-1.10;75.63
21359;BME280;13506;50.852;20.632;2023-01-28T09:08:14;98900.50;;;-1.06;75.68
21359;BME280;13506;50.852;20.632;2023-01-28T09:10:42;98908.13;;;-1.01;75.09
21359;BME280;13506;50.852;20.632;2023-01-28T09:13:13;98912.34;;;-0.99;74.88
21359;BME280;13506;50.852;20.632;2023-01-28T09:15:41;98899.81;;;-1.17;74.22
21359;BME280;13506;50.852;20.632;2023-01-28T09:18:09;98909.47;;;-1.35;75.08
21359;BME280;13506;50.852;20.632;2023-01-28T09:20:37;98895.38;;;-1.63;77.58
21359;BME280;13506;50.852;20.632;2023-01-28T09:23:06;98906.16;;;-1.40;76.66
21359;BME280;13506;50.852;20.632;2023-01-28T09:25:35;98911.94;;;-1.27;77.11
21359;BME280;13506;50.852;20.632;2023-01-28T09:28:04;98906.91;;;-1.33;76.41
21359;BME280;13506;50.852;20.632;2023-01-28T09:30:32;98907.88;;;-1.40;76.86
21359;BME280;13506;50.852;20.632;2023-01-28T09:33:01;98915.47;;;-1.34;76.33
21359;BME280;13506;50.852;20.632;2023-01-28T09:35:29;98911.97;;;-1.30;76.78
21359;BME280;13506;50.852;20.632;2023-01-28T09:37:57;98912.69;;;-1.20;76.33
21359;BME280;13506;50.852;20.632;2023-01-28T09:40:34;98908.28;;;-1.12;76.24
21359;BME280;13506;50.852;20.632;2023-01-28T09:43:35;98904.16;;;-1.22;74.52
21359;BME280;13506;50.852;20.632;2023-01-28T09:46:10;98901.53;;;-1.19;75.30
21359;BME280;13506;50.852;20.632;2023-01-28T09:48:44;98899.97;;;-1.28;74.42
21359;BME280;13506;50.852;20.632;2023-01-28T09:51:28;98909.41;;;-1.29;74.88
21359;BME280;13506;50.852;20.632;2023-01-28T09:54:03;98909.47;;;-1.32;74.53
21359;BME280;13506;50.852;20.632;2023-01-28T09:56:40;98904.34;;;-1.33;73.99
21359;BME280;13506;50.852;20.632;2023-01-28T09:59:17;98908.66;;;-1.37;74.15
21359;BME280;13506;50.852;20.632;2023-01-28T10:01:53;98905.34;;;-1.43;74.28
21359;BME280;13506;50.852;20.632;2023-01-28T10:04:39;98908.13;;;-1.59;74.82
21359;BME280;13506;50.852;20.632;2023-01-28T10:07:26;98900.38;;;-1.56;75.56
21359;BME280;13506;50.852;20.632;2023-01-28T10:10:02;98904.44;;;-1.41;74.86
21359;BME280;13506;50.852;20.632;2023-01-28T10:13:11;98899.44;;;-1.50;74.88
21359;BME280;13506;50.852;20.632;2023-01-28T10:15:53;98901.78;;;-1.33;74.18
21359;BME280;13506;50.852;20.632;2023-01-28T10:18:33;98898.19;;;-1.23;74.18
21359;BME280;13506;50.852;20.632;2023-01-28T10:21:07;98895.63;;;-1.21;74.06
21359;BME280;13506;50.852;20.632;2023-01-28T10:23:47;98894.00;;;-1.29;74.69
21359;BME280;13506;50.852;20.632;2023-01-28T10:26:22;98888.63;;;-1.13;74.11
21359;BME280;13506;50.852;20.632;2023-01-28T10:28:56;98896.94;;;-0.97;74.80
21359;BME280;13506;50.852;20.632;2023-01-28T10:31:31;98901.03;;;-0.87;73.54
21359;BME280;13506;50.852;20.632;2023-01-28T10:34:02;98888.84;;;-0.76;73.83
21359;BME280;13506;50.852;20.632;2023-01-28T10:36:31;98892.94;;;-0.64;73.31
21359;BME280;13506;50.852;20.632;2023-01-28T10:38:59;98888.44;;;-0.53;72.76
21359;BME280;13506;50.852;20.632;2023-01-28T10:41:27;98882.56;;;-0.59;72.29
21359;BME280;13506;50.852;20.632;2023-01-28T10:43:56;98898.72;;;-0.54;72.70
21359;BME280;13506;50.852;20.632;2023-01-28T10:46:31;98883.22;;;-0.48;72.80
21359;BME280;13506;50.852;20.632;2023-01-28T10:49:06;98893.34;;;-0.40;72.17
21359;BME280;13506;50.852;20.632;2023-01-28T10:51:42;98888.97;;;-0.37;72.15
21359;BME280;13506;50.852;20.632;2023-01-28T10:54:20;98886.38;;;-0.34;72.33
21359;BME280;13506;50.852;20.632;2023-01-28T10:56:52;98890.63;;;-0.33;72.24
21359;BME280;13506;50.852;20.632;2023-01-28T10:59:25;98881.16;;;-0.31;71.89
21359;BME280;13506;50.852;20.632;2023-01-28T11:01:56;98881.91;;;-0.24;71.82
21359;BME280;13506;50.852;20.632;2023-01-28T11:04:27;98889.56;;;-0.22;72.00
21359;BME280;13506;50.852;20.632;2023-01-28T11:06:59;98888.22;;;-0.42;71.56
21359;BME280;13506;50.852;20.632;2023-01-28T11:09:29;98896.22;;;-0.56;73.03
21359;BME280;13506;50.852;20.632;2023-01-28T11:11:58;98881.44;;;-0.46;73.02
21359;BME280;13506;50.852;20.632;2023-01-28T11:14:42;98879.94;;;-0.56;73.66
21359;BME280;13506;50.852;20.632;2023-01-28T11:17:15;98881.00;;;-0.68;74.39
21359;BME280;13506;50.852;20.632;2023-01-28T11:19:45;98876.50;;;-0.55;73.59
21359;BME280;13506;50.852;20.632;2023-01-28T11:22:26;98867.91;;;-0.54;74.70
21359;BME280;13506;50.852;20.632;2023-01-28T11:24:55;98877.22;;;-0.47;74.69
21359;BME280;13506;50.852;20.632;2023-01-28T11:27:28;98874.53;;;-0.41;74.68
21359;BME280;13506;50.852;20.632;2023-01-28T11:30:01;98871.84;;;-0.36;74.16
21359;BME280;13506;50.852;20.632;2023-01-28T11:32:30;98869.22;;;-0.35;73.82
21359;BME280;13506;50.852;20.632;2023-01-28T11:34:59;98870.81;;;-0.28;74.47
21359;BME280;13506;50.852;20.632;2023-01-28T11:37:28;98877.59;;;-0.24;74.36
21359;BME280;13506;50.852;20.632;2023-01-28T11:40:16;98863.84;;;-0.22;74.30
21359;BME280;13506;50.852;20.632;2023-01-28T11:42:46;98875.78;;;-0.20;74.69
21359;BME280;13506;50.852;20.632;2023-01-28T11:45:18;98866.31;;;-0.18;74.17
21359;BME280;13506;50.852;20.632;2023-01-28T11:48:02;98870.66;;;-0.20;74.93
21359;BME280;13506;50.852;20.632;2023-01-28T11:50:43;98858.72;;;-0.22;74.81
21359;BME280;13506;50.852;20.632;2023-01-28T11:53:49;98852.59;;;-0.17;75.18
21359;BME280;13506;50.852;20.632;2023-01-28T11:56:50;98859.66;;;-0.27;74.31
21359;BME280;13506;50.852;20.632;2023-01-28T11:59:39;98862.31;;;-0.31;75.39
21359;BME280;13506;50.852;20.632;2023-01-28T12:02:48;98863.31;;;-0.38;76.26
21359;BME280;13506;50.852;20.632;2023-01-28T12:05:48;98857.94;;;-0.26;75.67
21359;BME280;13506;50.852;20.632;2023-01-28T12:08:21;98857.94;;;-0.26;74.79
21359;BME280;13506;50.852;20.632;2023-01-28T12:11:13;98851.91;;;-0.24;75.91
21359;BME280;13506;50.852;20.632;2023-01-28T12:13:56;98840.78;;;-0.26;75.09
21359;BME280;13506;50.852;20.632;2023-01-28T12:16:44;98848.38;;;-0.19;75.76
21359;BME280;13506;50.852;20.632;2023-01-28T12:19:34;98838.03;;;-0.16;75.15
21359;BME280;13506;50.852;20.632;2023-01-28T12:22:51;98854.13;;;-0.07;75.53
21359;BME280;13506;50.852;20.632;2023-01-28T12:25:32;98839.38;;;0.02;75.20
21359;BME280;13506;50.852;20.632;2023-01-28T12:28:13;98853.88;;;0.04;74.31
21359;BME280;13506;50.852;20.632;2023-01-28T12:31:00;98848.59;;;0.10;74.19
21359;BME280;13506;50.852;20.632;2023-01-28T12:34:00;98842.47;;;0.16;
21359;BME280;13506;50.852;20.632;2023-01-28T12:36:48;98843.19;;;0.23;73.81
21359;BME280;13506;50.852;20.632;2023-01-28T12:39:29;98835.53;;;0.20;73.78
21359;BME280;13506;50.852;20.632;2023-01-28T12:42:06;98849.22;;;0.22;73.13
21359;BME280;13506;50.852;20.632;2023-01-28T12:44:42;98843.38;;;0.13;73.72
21359;BME280;13506;50.852;20.632;2023-01-28T12:47:18;98840.91;;;0.09;73.17
21359;BME280;13506;50.852;20.632;2023-01-28T12:49:54;98858.09;;;0.08;74.04
21359;BME280;13506;50.852;20.632;2023-01-28T12:52:27;98854.16;;;-0.10;74.93
21359;BME280;13506;50.852;20.632;2023-01-28T12:55:02;98853.28;;;-0.07;74.49
21359;BME280;13506;50.852;20.632;2023-01-28T12:57:32;98850.63;;;-0.04;74.38
21359;BME280;13506;50.852;20.632;2023-01-28T13:00:17;98851.47;;;-0.04;74.19
21359;BME280;13506;50.852;20.632;2023-01-28T13:02:52;98854.88;;;-0.03;74.80
21359;BME280;13506;50.852;20.632;2023-01-28T13:05:32;98854.38;;;-0.19;74.69
21359;BME280;13506;50.852;20.632;2023-01-28T13:08:09;98843.38;;;-0.26;75.10
21359;BME280;13506;50.852;20.632;2023-01-28T13:10:42;98858.66;;;-0.19;74.99
21359;BME280;13506;50.852;20.632;2023-01-28T13:13:17;98856.91;;;-0.17;74.92
21359;BME280;13506;50.852;20.632;2023-01-28T13:15:47;98849.88;;;-0.09;74.54
21359;BME280;13506;50.852;20.632;2023-01-28T13:18:33;98861.88;;;-0.10;75.00
21359;BME280;13506;50.852;20.632;2023-01-28T13:21:15;98847.31;;;-0.09;74.21
21359;BME280;13506;50.852;20.632;2023-01-28T13:23:47;98845.69;;;-0.13;74.56
21359;BME280;13506;50.852;20.632;2023-01-28T13:26:36;98854.25;;;-0.13;74.05
21359;BME280;13506;50.852;20.632;2023-01-28T13:29:26;98857.72;;;-0.15;75.68
21359;BME280;13506;50.852;20.632;2023-01-28T13:31:57;98865.38;;;-0.14;74.36
21359;BME280;13506;50.852;20.632;2023-01-28T13:34:33;98864.56;;;-0.16;74.46
21359;BME280;13506;50.852;20.632;2023-01-28T13:37:12;98853.56;;;-0.22;73.53
21359;BME280;13506;50.852;20.632;2023-01-28T13:39:47;98865.50;;;-0.20;73.96
21359;BME280;13506;50.852;20.632;2023-01-28T13:42:23;98861.28;;;-0.22;73.48
21359;BME280;13506;50.852;20.632;2023-01-28T13:44:51;98869.06;;;-0.26;73.71